sensor_id;sensor_type;location;lat;lon;timestamp;P1;durP1;ratioP1;P2;durP2;ratioP2
19199;SDS011;9732;52.498;5.408;2022-09-09T00:01:47;6.43;;;4.53;;
19199;SDS011;9732;52.498;5.408;2022-09-09T00:04:21;7.13;;;3.85;;
19199;SDS011;9732;52.498;5.408;2022-09-09T00:06:55;8.18;;;4.55;;
19199;SDS011;9732;52.498;5.408;2022-09-09T00:09:29;7.55;;;3.35;;
19199;SDS011;9732;52.498;5.408;2022-09-09T00:11:58;5.55;;;3.40;;
19199;SDS011;9732;52.498;5.408;2022-09-09T00:14:32;5.40;;;3.53;;
19199;SDS011;9732;52.498;5.408;2022-09-09T00:17:06;8.52;;;3.35;;
19199;SDS011;9732;52.498;5.408;2022-09-09T00:19:41;5.00;;;3.10;;
19199;SDS011;9732;52.498;5.408;2022-09-09T00:22:16;7.45;;;2.90;;
19199;SDS011;9732;52.498;5.408;2022-09-09T00:24:45;6.15;;;2.80;;
19199;SDS011;9732;52.498;5.408;2022-09-09T00:27:16;6.00;;;2.92;;
19199;SDS011;9732;52.498;5.408;2022-09-09T00:29:51;5.80;;;2.50;;
19199;SDS011;9732;52.498;5.408;2022-09-09T00:32:20;4.22;;;2.65;;
19199;SDS011;9732;52.498;5.408;2022-09-09T00:34:51;8.25;;;2.30;;
19199;SDS011;9732;52.498;5.408;2022-09-09T00:37:21;4.40;;;2.47;;
19199;SDS011;9732;52.498;5.408;2022-09-09T00:39:50;6.22;;;2.22;;
19199;SDS011;9732;52.498;5.408;2022-09-09T00:42:23;5.68;;;2.10;;
19199;SDS011;9732;52.498;5.408;2022-09-09T00:44:53;2.72;;;2.10;;
19199;SDS011;9732;52.498;5.408;2022-09-09T00:50:19;4.20;;;1.85;;
19199;SDS011;9732;52.498;5.408;2022-09-09T00:53:01;2.95;;;1.77;;
19199;SDS011;9732;52.498;5.408;2022-09-09T00:55:37;3.40;;;2.05;;
19199;SDS011;9732;52.498;5.408;2022-09-09T00:58:11;3.85;;;2.03;;
19199;SDS011;9732;52.498;5.408;2022-09-09T01:00:40;5.47;;;2.05;;
19199;SDS011;9732;52.498;5.408;2022-09-09T01:03:20;3.38;;;1.83;;
19199;SDS011;9732;52.498;5.408;2022-09-09T01:06:02;2.00;;;1.70;;
19199;SDS011;9732;52.498;5.408;2022-09-09T01:08:52;2.25;;;1.90;;
19199;SDS011;9732;52.498;5.408;2022-09-09T01:11:32;5.15;;;2.17;;
19199;SDS011;9732;52.498;5.408;2022-09-09T01:14:10;8.77;;;2.50;;
19199;SDS011;9732;52.498;5.408;2022-09-09T01:16:43;3.83;;;2.10;;
19199;SDS011;9732;52.498;5.408;2022-09-09T01:19:13;4.72;;;2.10;;
19199;SDS011;9732;52.498;5.408;2022-09-09T01:21:48;7.40;;;3.05;;
19199;SDS011;9732;52.498;5.408;2022-09-09T01:24:22;7.40;;;2.65;;
19199;SDS011;9732;52.498;5.408;2022-09-09T01:26:56;3.47;;;2.10;;
19199;SDS011;9732;52.498;5.408;2022-09-09T01:29:27;5.40;;;2.67;;
19199;SDS011;9732;52.498;5.408;2022-09-09T01:31:55;4.80;;;2.38;;
19199;SDS011;9732;52.498;5.408;2022-09-09T01:34:23;3.90;;;2.38;;
19199;SDS011;9732;52.498;5.408;2022-09-09T01:36:53;5.05;;;2.63;;
19199;SDS011;9732;52.498;5.408;2022-09-09T01:39:23;6.78;;;3.03;;
19199;SDS011;9732;52.498;5.408;2022-09-09T01:41:50;4.95;;;3.00;;
19199;SDS011;9732;52.498;5.408;2022-09-09T01:44:19;5.90;;;2.55;;
19199;SDS011;9732;52.498;5.408;2022-09-09T01:46:46;4.45;;;3.10;;
19199;SDS011;9732;52.498;5.408;2022-09-09T01:49:13;6.18;;;3.55;;
19199;SDS011;9732;52.498;5.408;2022-09-09T01:51:40;8.27;;;4.15;;
19199;SDS011;9732;52.498;5.408;2022-09-09T01:54:09;6.38;;;3.90;;
19199;SDS011;9732;52.498;5.408;2022-09-09T01:56:40;9.68;;;4.03;;
19199;SDS011;9732;52.498;5.408;2022-09-09T01:59:17;9.23;;;4.30;;
19199;SDS011;9732;52.498;5.408;2022-09-09T02:02:03;8.38;;;3.83;;
19199;SDS011;9732;52.498;5.408;2022-09-09T02:04:36;10.43;;;4.18;;
19199;SDS011;9732;52.498;5.408;2022-09-09T02:07:06;11.23;;;4.38;;
19199;SDS011;9732;52.498;5.408;2022-09-09T02:09:47;8.57;;;4.15;;
19199;SDS011;9732;52.498;5.408;2022-09-09T02:12:18;9.02;;;4.07;;
19199;SDS011;9732;52.498;5.408;2022-09-09T02:14:52;8.65;;;4.10;;
19199;SDS011;9732;52.498;5.408;2022-09-09T02:17:25;10.50;;;4.40;;
19199;SDS011;9732;52.498;5.408;2022-09-09T02:19:57;10.45;;;4.60;;
19199;SDS011;9732;52.498;5.408;2022-09-09T02:22:32;6.50;;;4.22;;
19199;SDS011;9732;52.498;5.408;2022-09-09T02:25:00;13.50;;;4.60;;
19199;SDS011;9732;52.498;5.408;2022-09-09T02:27:30;8.23;;;5.07;;
19199;SDS011;9732;52.498;5.408;2022-09-09T02:29:59;10.05;;;4.82;;
19199;SDS011;9732;52.498;5.408;2022-09-09T02:32:27;7.68;;;4.40;;
19199;SDS011;9732;52.498;5.408;2022-09-09T02:34:57;10.85;;;4.80;;
19199;SDS011;9732;52.498;5.408;2022-09-09T02:37:28;8.63;;;5.10;;
19199;SDS011;9732;52.498;5.408;2022-09-09T02:40:01;9.18;;;5.72;;
19199;SDS011;9732;52.498;5.408;2022-09-09T02:42:28;7.40;;;5.72;;
19199;SDS011;9732;52.498;5.408;2022-09-09T02:44:55;11.90;;;5.07;;
19199;SDS011;9732;52.498;5.408;2022-09-09T02:47:26;12.50;;;5.70;;
19199;SDS011;9732;52.498;5.408;2022-09-09T02:50:02;12.23;;;6.18;;
19199;SDS011;9732;52.498;5.408;2022-09-09T02:52:37;7.82;;;5.25;;
19199;SDS011;9732;52.498;5.408;2022-09-09T02:55:12;8.02;;;5.35;;
19199;SDS011;9732;52.498;5.408;2022-09-09T02:57:46;11.50;;;5.93;;
19199;SDS011;9732;52.498;5.408;2022-09-09T03:00:14;10.25;;;5.60;;
19199;SDS011;9732;52.498;5.408;2022-09-09T03:02:42;11.32;;;5.45;;
19199;SDS011;9732;52.498;5.408;2022-09-09T03:05:10;11.10;;;6.20;;
19199;SDS011;9732;52.498;5.408;2022-09-09T03:07:38;9.55;;;6.72;;
19199;SDS011;9732;52.498;5.408;2022-09-09T03:10:05;10.85;;;6.25;;
19199;SDS011;9732;52.498;5.408;2022-09-09T03:12:33;9.45;;;5.72;;
19199;SDS011;9732;52.498;5.408;2022-09-09T03:14:59;14.50;;;6.55;;
19199;SDS011;9732;52.498;5.408;2022-09-09T03:17:26;10.95;;;5.40;;
19199;SDS011;9732;52.498;5.408;2022-09-09T03:19:54;10.98;;;6.25;;
19199;SDS011;9732;52.498;5.408;2022-09-09T03:22:22;13.98;;;7.07;;
19199;SDS011;9732;52.498;5.408;2022-09-09T03:24:50;11.68;;;6.97;;
19199;SDS011;9732;52.498;5.408;2022-09-09T03:27:17;16.45;;;6.38;;
19199;SDS011;9732;52.498;5.408;2022-09-09T03:29:45;12.13;;;7.13;;
19199;SDS011;9732;52.498;5.408;2022-09-09T03:32:14;11.27;;;6.75;;
19199;SDS011;9732;52.498;5.408;2022-09-09T03:34:42;12.32;;;7.25;;
19199;SDS011;9732;52.498;5.408;2022-09-09T03:37:10;14.07;;;6.97;;
19199;SDS011;9732;52.498;5.408;2022-09-09T03:39:37;15.57;;;7.50;;
19199;SDS011;9732;52.498;5.408;2022-09-09T03:42:03;15.07;;;7.38;;
19199;SDS011;9732;52.498;5.408;2022-09-09T03:44:30;13.43;;;6.95;;
19199;SDS011;9732;52.498;5.408;2022-09-09T03:46:57;10.98;;;6.82;;
19199;SDS011;9732;52.498;5.408;2022-09-09T03:49:25;14.40;;;6.75;;
19199;SDS011;9732;52.498;5.408;2022-09-09T03:51:53;11.38;;;7.40;;
19199;SDS011;9732;52.498;5.408;2022-09-09T03:54:22;12.73;;;7.35;;
19199;SDS011;9732;52.498;5.408;2022-09-09T03:56:49;11.43;;;6.80;;
19199;SDS011;9732;52.498;5.408;2022-09-09T03:59:17;10.90;;;6.88;;
19199;SDS011;9732;52.498;5.408;2022-09-09T04:01:44;11.82;;;7.35;;
19199;SDS011;9732;52.498;5.408;2022-09-09T04:04:12;15.10;;;7.50;;
19199;SDS011;9732;52.498;5.408;2022-09-09T04:06:39;15.10;;;7.57;;
19199;SDS011;9732;52.498;5.408;2022-09-09T04:09:05;14.25;;;7.22;;
19199;SDS011;9732;52.498;5.408;2022-09-09T04:11:33;15.07;;;8.05;;
19199;SDS011;9732;52.498;5.408;2022-09-09T04:14:00;11.48;;;6.75;;
19199;SDS011;9732;52.498;5.408;2022-09-09T04:16:27;12.93;;;7.85;;
19199;SDS011;9732;52.498;5.408;2022-09-09T04:18:54;10.57;;;7.05;;
19199;SDS011;9732;52.498;5.408;2022-09-09T04:21:21;11.38;;;7.03;;
19199;SDS011;9732;52.498;5.408;2022-09-09T04:23:48;12.52;;;7.32;;
19199;SDS011;9732;52.498;5.408;2022-09-09T04:26:15;12.23;;;7.30;;
19199;SDS011;9732;52.498;5.408;2022-09-09T04:28:43;10.77;;;7.50;;
19199;SDS011;9732;52.498;5.408;2022-09-09T04:31:10;11.88;;;7.03;;
19199;SDS011;9732;52.498;5.408;2022-09-09T04:33:41;10.48;;;6.53;;
19199;SDS011;9732;52.498;5.408;2022-09-09T04:36:08;12.95;;;7.93;;
19199;SDS011;9732;52.498;5.408;2022-09-09T04:38:35;12.82;;;7.20;;
19199;SDS011;9732;52.498;5.408;2022-09-09T04:41:02;14.10;;;8.05;;
19199;SDS011;9732;52.498;5.408;2022-09-09T04:43:28;11.25;;;8.00;;
19199;SDS011;9732;52.498;5.408;2022-09-09T04:45:57;16.02;;;8.40;;
19199;SDS011;9732;52.498;5.408;2022-09-09T04:48:24;11.38;;;8.02;;
19199;SDS011;9732;52.498;5.408;2022-09-09T04:50:55;15.23;;;7.93;;
19199;SDS011;9732;52.498;5.408;2022-09-09T04:53:22;13.43;;;8.32;;
19199;SDS011;9732;52.498;5.408;2022-09-09T04:55:50;12.50;;;8.00;;
19199;SDS011;9732;52.498;5.408;2022-09-09T04:58:17;12.75;;;8.25;;
19199;SDS011;9732;52.498;5.408;2022-09-09T05:00:46;12.52;;;7.57;;
19199;SDS011;9732;52.498;5.408;2022-09-09T05:03:14;13.98;;;8.18;;
19199;SDS011;9732;52.498;5.408;2022-09-09T05:05:41;15.00;;;8.48;;
19199;SDS011;9732;52.498;5.408;2022-09-09T05:08:08;16.15;;;7.97;;
19199;SDS011;9732;52.498;5.408;2022-09-09T05:10:36;11.82;;;8.20;;
19199;SDS011;9732;52.498;5.408;2022-09-09T05:13:06;14.82;;;8.02;;
19199;SDS011;9732;52.498;5.408;2022-09-09T05:15:33;12.93;;;7.80;;
19199;SDS011;9732;52.498;5.408;2022-09-09T05:18:01;13.25;;;7.63;;
19199;SDS011;9732;52.498;5.408;2022-09-09T05:20:29;11.18;;;7.25;;
19199;SDS011;9732;52.498;5.408;2022-09-09T05:22:56;11.85;;;7.70;;
19199;SDS011;9732;52.498;5.408;2022-09-09T05:25:23;9.63;;;7.00;;
19199;SDS011;9732;52.498;5.408;2022-09-09T05:27:51;12.70;;;8.05;;
19199;SDS011;9732;52.498;5.408;2022-09-09T05:30:18;13.18;;;7.43;;
19199;SDS011;9732;52.498;5.408;2022-09-09T05:32:45;12.57;;;7.30;;
19199;SDS011;9732;52.498;5.408;2022-09-09T05:35:12;11.73;;;6.85;;
19199;SDS011;9732;52.498;5.408;2022-09-09T05:37:40;13.23;;;7.03;;
19199;SDS011;9732;52.498;5.408;2022-09-09T05:40:08;15.82;;;7.43;;
19199;SDS011;9732;52.498;5.408;2022-09-09T05:42:35;11.60;;;6.70;;
19199;SDS011;9732;52.498;5.408;2022-09-09T05:45:03;10.50;;;6.38;;
19199;SDS011;9732;52.498;5.408;2022-09-09T05:47:30;11.80;;;6.88;;
19199;SDS011;9732;52.498;5.408;2022-09-09T05:49:57;9.80;;;6.45;;
19199;SDS011;9732;52.498;5.408;2022-09-09T05:52:23;8.80;;;6.15;;
19199;SDS011;9732;52.498;5.408;2022-09-09T05:54:52;11.75;;;5.80;;
19199;SDS011;9732;52.498;5.408;2022-09-09T05:57:20;19.90;;;6.05;;
19199;SDS011;9732;52.498;5.408;2022-09-09T05:59:46;11.00;;;6.43;;
19199;SDS011;9732;52.498;5.408;2022-09-09T06:02:13;12.15;;;6.22;;
19199;SDS011;9732;52.498;5.408;2022-09-09T06:04:40;12.50;;;5.65;;
19199;SDS011;9732;52.498;5.408;2022-09-09T06:07:06;11.30;;;5.15;;
19199;SDS011;9732;52.498;5.408;2022-09-09T06:09:33;8.13;;;4.97;;
19199;SDS011;9732;52.498;5.408;2022-09-09T06:12:01;10.98;;;5.90;;
19199;SDS011;9732;52.498;5.408;2022-09-09T06:14:28;11.93;;;5.57;;
19199;SDS011;9732;52.498;5.408;2022-09-09T06:16:55;11.45;;;5.78;;
19199;SDS011;9732;52.498;5.408;2022-09-09T06:19:22;14.60;;;5.80;;
19199;SDS011;9732;52.498;5.408;2022-09-09T06:21:52;10.98;;;5.72;;
19199;SDS011;9732;52.498;5.408;2022-09-09T06:24:18;8.30;;;4.82;;
19199;SDS011;9732;52.498;5.408;2022-09-09T06:26:45;10.27;;;5.10;;
19199;SDS011;9732;52.498;5.408;2022-09-09T06:29:13;8.48;;;4.88;;
19199;SDS011;9732;52.498;5.408;2022-09-09T06:31:40;11.77;;;5.63;;
19199;SDS011;9732;52.498;5.408;2022-09-09T06:34:07;11.35;;;4.75;;
19199;SDS011;9732;52.498;5.408;2022-09-09T06:36:34;11.05;;;5.45;;
19199;SDS011;9732;52.498;5.408;2022-09-09T06:39:03;7.28;;;4.63;;
19199;SDS011;9732;52.498;5.408;2022-09-09T06:41:30;7.97;;;4.38;;
19199;SDS011;9732;52.498;5.408;2022-09-09T06:43:58;8.18;;;4.80;;
19199;SDS011;9732;52.498;5.408;2022-09-09T06:46:27;10.25;;;4.85;;
19199;SDS011;9732;52.498;5.408;2022-09-09T06:48:56;9.52;;;4.55;;
19199;SDS011;9732;52.498;5.408;2022-09-09T06:51:25;9.60;;;4.50;;
19199;SDS011;9732;52.498;5.408;2022-09-09T06:53:53;10.50;;;4.63;;
19199;SDS011;9732;52.498;5.408;2022-09-09T06:56:22;11.98;;;5.13;;
19199;SDS011;9732;52.498;5.408;2022-09-09T06:58:50;11.65;;;5.00;;
19199;SDS011;9732;52.498;5.408;2022-09-09T07:01:19;11.05;;;4.57;;
19199;SDS011;9732;52.498;5.408;2022-09-09T07:03:49;12.82;;;4.72;;
19199;SDS011;9732;52.498;5.408;2022-09-09T07:06:18;9.45;;;3.97;;
19199;SDS011;9732;52.498;5.408;2022-09-09T07:08:49;10.88;;;4.63;;
19199;SDS011;9732;52.498;5.408;2022-09-09T07:11:17;12.95;;;4.32;;
19199;SDS011;9732;52.498;5.408;2022-09-09T07:13:45;9.82;;;4.13;;
19199;SDS011;9732;52.498;5.408;2022-09-09T07:16:13;7.47;;;3.97;;
19199;SDS011;9732;52.498;5.408;2022-09-09T07:18:41;12.20;;;4.28;;
19199;SDS011;9732;52.498;5.408;2022-09-09T07:21:10;10.27;;;4.10;;
19199;SDS011;9732;52.498;5.408;2022-09-09T07:23:38;11.15;;;3.97;;
19199;SDS011;9732;52.498;5.408;2022-09-09T07:26:07;11.27;;;4.03;;
19199;SDS011;9732;52.498;5.408;2022-09-09T07:28:35;11.10;;;3.85;;
19199;SDS011;9732;52.498;5.408;2022-09-09T07:31:02;9.32;;;3.45;;
19199;SDS011;9732;52.498;5.408;2022-09-09T07:33:30;10.15;;;3.55;;
19199;SDS011;9732;52.498;5.408;2022-09-09T07:36:01;13.15;;;4.00;;
19199;SDS011;9732;52.498;5.408;2022-09-09T07:38:31;6.68;;;3.45;;
19199;SDS011;9732;52.498;5.408;2022-09-09T07:41:02;10.70;;;3.33;;
19199;SDS011;9732;52.498;5.408;2022-09-09T07:43:30;10.80;;;3.75;;
19199;SDS011;9732;52.498;5.408;2022-09-09T07:45:58;11.02;;;3.47;;
19199;SDS011;9732;52.498;5.408;2022-09-09T07:48:26;10.15;;;3.78;;
19199;SDS011;9732;52.498;5.408;2022-09-09T07:51:01;15.43;;;4.35;;
19199;SDS011;9732;52.498;5.408;2022-09-09T07:53:32;13.88;;;3.95;;
19199;SDS011;9732;52.498;5.408;2022-09-09T07:56:02;11.23;;;3.47;;
19199;SDS011;9732;52.498;5.408;2022-09-09T07:58:29;9.23;;;3.78;;
19199;SDS011;9732;52.498;5.408;2022-09-09T08:00:56;11.88;;;4.45;;
19199;SDS011;9732;52.498;5.408;2022-09-09T08:03:22;12.25;;;3.88;;
19199;SDS011;9732;52.498;5.408;2022-09-09T08:05:49;10.45;;;3.95;;
19199;SDS011;9732;52.498;5.408;2022-09-09T08:08:16;7.72;;;3.58;;
19199;SDS011;9732;52.498;5.408;2022-09-09T08:10:44;8.15;;;4.00;;
19199;SDS011;9732;52.498;5.408;2022-09-09T08:13:11;9.55;;;3.80;;
19199;SDS011;9732;52.498;5.408;2022-09-09T08:15:38;11.32;;;3.70;;
19199;SDS011;9732;52.498;5.408;2022-09-09T08:18:06;12.65;;;3.88;;
19199;SDS011;9732;52.498;5.408;2022-09-09T08:20:35;9.85;;;4.35;;
19199;SDS011;9732;52.498;5.408;2022-09-09T08:23:02;9.77;;;3.58;;
19199;SDS011;9732;52.498;5.408;2022-09-09T08:25:29;14.05;;;4.20;;
19199;SDS011;9732;52.498;5.408;2022-09-09T08:27:57;11.82;;;3.70;;
19199;SDS011;9732;52.498;5.408;2022-09-09T08:30:24;11.48;;;3.40;;
19199;SDS011;9732;52.498;5.408;2022-09-09T08:32:51;13.32;;;3.65;;
19199;SDS011;9732;52.498;5.408;2022-09-09T08:35:18;11.15;;;3.30;;
19199;SDS011;9732;52.498;5.408;2022-09-09T08:37:45;11.65;;;3.67;;
19199;SDS011;9732;52.498;5.408;2022-09-09T08:40:12;13.55;;;3.70;;
19199;SDS011;9732;52.498;5.408;2022-09-09T08:42:48;12.98;;;3.38;;
19199;SDS011;9732;52.498;5.408;2022-09-09T08:45:21;11.35;;;3.53;;
19199;SDS011;9732;52.498;5.408;2022-09-09T08:48:02;5.82;;;2.58;;
19199;SDS011;9732;52.498;5.408;2022-09-09T08:50:39;9.00;;;2.95;;
19199;SDS011;9732;52.498;5.408;2022-09-09T08:53:09;6.65;;;2.80;;
19199;SDS011;9732;52.498;5.408;2022-09-09T08:55:42;14.98;;;3.67;;
19199;SDS011;9732;52.498;5.408;2022-09-09T08:58:14;10.75;;;3.00;;
19199;SDS011;9732;52.498;5.408;2022-09-09T09:00:47;10.93;;;3.35;;
19199;SDS011;9732;52.498;5.408;2022-09-09T09:03:28;7.28;;;2.53;;
19199;SDS011;9732;52.498;5.408;2022-09-09T09:06:03;7.75;;;2.80;;
19199;SDS011;9732;52.498;5.408;2022-09-09T09:08:36;5.82;;;3.05;;
19199;SDS011;9732;52.498;5.408;2022-09-09T09:11:10;11.55;;;3.13;;
19199;SDS011;9732;52.498;5.408;2022-09-09T09:13:38;12.77;;;3.28;;
19199;SDS011;9732;52.498;5.408;2022-09-09T09:16:15;9.25;;;2.83;;
19199;SDS011;9732;52.498;5.408;2022-09-09T09:18:47;7.00;;;2.80;;
19199;SDS011;9732;52.498;5.408;2022-09-09T09:21:16;9.25;;;2.58;;
19199;SDS011;9732;52.498;5.408;2022-09-09T09:23:51;10.07;;;2.85;;
19199;SDS011;9732;52.498;5.408;2022-09-09T09:26:23;13.15;;;2.70;;
19199;SDS011;9732;52.498;5.408;2022-09-09T09:28:52;6.03;;;2.80;;
19199;SDS011;9732;52.498;5.408;2022-09-09T09:31:23;8.13;;;2.63;;
19199;SDS011;9732;52.498;5.408;2022-09-09T09:33:52;9.40;;;2.47;;
19199;SDS011;9732;52.498;5.408;2022-09-09T09:36:19;11.45;;;2.42;;
19199;SDS011;9732;52.498;5.408;2022-09-09T09:38:54;7.28;;;2.42;;
19199;SDS011;9732;52.498;5.408;2022-09-09T09:41:29;10.10;;;2.65;;
19199;SDS011;9732;52.498;5.408;2022-09-09T09:43:58;4.97;;;2.22;;
19199;SDS011;9732;52.498;5.408;2022-09-09T09:46:28;8.20;;;2.35;;
19199;SDS011;9732;52.498;5.408;2022-09-09T09:48:58;11.50;;;2.70;;
19199;SDS011;9732;52.498;5.408;2022-09-09T09:51:26;9.50;;;2.40;;
19199;SDS011;9732;52.498;5.408;2022-09-09T09:54:01;8.80;;;2.50;;
19199;SDS011;9732;52.498;5.408;2022-09-09T09:56:35;7.80;;;2.40;;
19199;SDS011;9732;52.498;5.408;2022-09-09T09:59:02;10.27;;;2.50;;
19199;SDS011;9732;52.498;5.408;2022-09-09T10:01:31;11.48;;;2.42;;
19199;SDS011;9732;52.498;5.408;2022-09-09T10:04:00;10.85;;;3.28;;
19199;SDS011;9732;52.498;5.408;2022-09-09T10:06:29;11.43;;;2.70;;
19199;SDS011;9732;52.498;5.408;2022-09-09T10:08:57;9.73;;;2.10;;
19199;SDS011;9732;52.498;5.408;2022-09-09T10:11:30;8.35;;;2.95;;
19199;SDS011;9732;52.498;5.408;2022-09-09T10:14:10;7.60;;;2.70;;
19199;SDS011;9732;52.498;5.408;2022-09-09T10:16:48;7.45;;;2.40;;
19199;SDS011;9732;52.498;5.408;2022-09-09T10:19:29;12.90;;;2.92;;
19199;SDS011;9732;52.498;5.408;2022-09-09T10:22:01;11.73;;;2.90;;
19199;SDS011;9732;52.498;5.408;2022-09-09T10:27:44;8.88;;;2.50;;
19199;SDS011;9732;52.498;5.408;2022-09-09T10:30:19;13.77;;;3.22;;
19199;SDS011;9732;52.498;5.408;2022-09-09T10:32:51;8.60;;;2.72;;
19199;SDS011;9732;52.498;5.408;2022-09-09T10:35:27;10.20;;;3.10;;
19199;SDS011;9732;52.498;5.408;2022-09-09T10:40:43;9.48;;;2.65;;
19199;SDS011;9732;52.498;5.408;2022-09-09T10:43:28;10.45;;;2.95;;
19199;SDS011;9732;52.498;5.408;2022-09-09T10:46:06;10.38;;;3.10;;
19199;SDS011;9732;52.498;5.408;2022-09-09T10:48:50;5.70;;;2.42;;
19199;SDS011;9732;52.498;5.408;2022-09-09T10:51:31;7.70;;;2.63;;
19199;SDS011;9732;52.498;5.408;2022-09-09T10:54:18;8.50;;;2.90;;
19199;SDS011;9732;52.498;5.408;2022-09-09T10:56:55;7.28;;;2.50;;
19199;SDS011;9732;52.498;5.408;2022-09-09T10:59:26;12.20;;;3.90;;
19199;SDS011;9732;52.498;5.408;2022-09-09T11:01:58;14.82;;;3.40;;
19199;SDS011;9732;52.498;5.408;2022-09-09T11:04:30;14.00;;;3.20;;
19199;SDS011;9732;52.498;5.408;2022-09-09T11:07:02;5.65;;;2.90;;
19199;SDS011;9732;52.498;5.408;2022-09-09T11:09:35;10.70;;;3.00;;
19199;SDS011;9732;52.498;5.408;2022-09-09T11:12:05;9.30;;;2.60;;
19199;SDS011;9732;52.498;5.408;2022-09-09T11:14:39;11.40;;;3.03;;
19199;SDS011;9732;52.498;5.408;2022-09-09T11:17:10;10.70;;;2.35;;
19199;SDS011;9732;52.498;5.408;2022-09-09T11:19:41;9.27;;;2.90;;
19199;SDS011;9732;52.498;5.408;2022-09-09T11:22:14;7.88;;;2.40;;
19199;SDS011;9732;52.498;5.408;2022-09-09T11:24:44;6.20;;;2.40;;
19199;SDS011;9732;52.498;5.408;2022-09-09T11:27:15;7.35;;;2.30;;
19199;SDS011;9732;52.498;5.408;2022-09-09T11:29:59;11.40;;;2.67;;
19199;SDS011;9732;52.498;5.408;2022-09-09T11:35:33;6.63;;;2.50;;
19199;SDS011;9732;52.498;5.408;2022-09-09T11:38:21;6.43;;;2.28;;
19199;SDS011;9732;52.498;5.408;2022-09-09T11:40:56;6.40;;;2.60;;
19199;SDS011;9732;52.498;5.408;2022-09-09T11:43:26;6.15;;;2.10;;
19199;SDS011;9732;52.498;5.408;2022-09-09T11:45:56;9.23;;;2.15;;
19199;SDS011;9732;52.498;5.408;2022-09-09T11:48:32;7.88;;;2.33;;
19199;SDS011;9732;52.498;5.408;2022-09-09T11:51:02;5.68;;;2.35;;
19199;SDS011;9732;52.498;5.408;2022-09-09T11:53:32;9.95;;;2.60;;
19199;SDS011;9732;52.498;5.408;2022-09-09T11:56:00;7.68;;;2.03;;
19199;SDS011;9732;52.498;5.408;2022-09-09T11:58:31;6.28;;;2.28;;
19199;SDS011;9732;52.498;5.408;2022-09-09T12:01:12;6.50;;;2.20;;
19199;SDS011;9732;52.498;5.408;2022-09-09T12:03:41;7.78;;;2.55;;
19199;SDS011;9732;52.498;5.408;2022-09-09T12:06:13;6.05;;;2.53;;
19199;SDS011;9732;52.498;5.408;2022-09-09T12:08:43;7.55;;;2.33;;
19199;SDS011;9732;52.498;5.408;2022-09-09T12:11:23;5.28;;;2.30;;
19199;SDS011;9732;52.498;5.408;2022-09-09T12:13:54;5.45;;;2.38;;
19199;SDS011;9732;52.498;5.408;2022-09-09T12:16:28;7.07;;;2.22;;
19199;SDS011;9732;52.498;5.408;2022-09-09T12:19:13;6.93;;;2.38;;
19199;SDS011;9732;52.498;5.408;2022-09-09T12:21:45;5.70;;;2.30;;
19199;SDS011;9732;52.498;5.408;2022-09-09T12:24:19;3.78;;;1.77;;
19199;SDS011;9732;52.498;5.408;2022-09-09T12:26:52;12.38;;;2.53;;
19199;SDS011;9732;52.498;5.408;2022-09-09T12:29:27;5.63;;;2.50;;
19199;SDS011;9732;52.498;5.408;2022-09-09T12:32:02;3.53;;;1.73;;
19199;SDS011;9732;52.498;5.408;2022-09-09T12:34:35;7.65;;;2.40;;
19199;SDS011;9732;52.498;5.408;2022-09-09T12:37:08;10.07;;;2.55;;
19199;SDS011;9732;52.498;5.408;2022-09-09T12:39:44;6.43;;;1.90;;
19199;SDS011;9732;52.498;5.408;2022-09-09T12:42:18;3.92;;;2.00;;
19199;SDS011;9732;52.498;5.408;2022-09-09T12:44:53;4.15;;;1.55;;
19199;SDS011;9732;52.498;5.408;2022-09-09T12:47:22;2.88;;;1.70;;
19199;SDS011;9732;52.498;5.408;2022-09-09T12:49:52;3.78;;;1.75;;
19199;SDS011;9732;52.498;5.408;2022-09-09T12:52:24;2.35;;;1.85;;
19199;SDS011;9732;52.498;5.408;2022-09-09T12:54:55;5.82;;;2.00;;
19199;SDS011;9732;52.498;5.408;2022-09-09T12:57:23;7.65;;;1.88;;
19199;SDS011;9732;52.498;5.408;2022-09-09T12:59:51;5.93;;;2.08;;
19199;SDS011;9732;52.498;5.408;2022-09-09T13:02:19;4.93;;;2.13;;
19199;SDS011;9732;52.498;5.408;2022-09-09T13:04:48;3.92;;;2.00;;
19199;SDS011;9732;52.498;5.408;2022-09-09T13:07:15;6.78;;;2.47;;
19199;SDS011;9732;52.498;5.408;2022-09-09T13:09:44;5.00;;;2.45;;
19199;SDS011;9732;52.498;5.408;2022-09-09T13:12:13;6.13;;;2.10;;
19199;SDS011;9732;52.498;5.408;2022-09-09T13:14:42;7.55;;;2.10;;
19199;SDS011;9732;52.498;5.408;2022-09-09T13:17:15;6.28;;;1.95;;
19199;SDS011;9732;52.498;5.408;2022-09-09T13:19:45;6.82;;;1.90;;
19199;SDS011;9732;52.498;5.408;2022-09-09T13:22:12;3.88;;;2.10;;
19199;SDS011;9732;52.498;5.408;2022-09-09T13:24:41;4.70;;;2.33;;
19199;SDS011;9732;52.498;5.408;2022-09-09T13:27:22;6.13;;;2.08;;
19199;SDS011;9732;52.498;5.408;2022-09-09T13:29:54;7.22;;;2.33;;
19199;SDS011;9732;52.498;5.408;2022-09-09T13:32:21;7.07;;;2.60;;
19199;SDS011;9732;52.498;5.408;2022-09-09T13:34:50;7.85;;;2.53;;
19199;SDS011;9732;52.498;5.408;2022-09-09T13:37:21;6.05;;;2.25;;
19199;SDS011;9732;52.498;5.408;2022-09-09T13:39:51;5.32;;;2.55;;
19199;SDS011;9732;52.498;5.408;2022-09-09T13:42:24;7.22;;;3.17;;
19199;SDS011;9732;52.498;5.408;2022-09-09T13:44:52;6.57;;;3.20;;
19199;SDS011;9732;52.498;5.408;2022-09-09T13:47:21;7.88;;;3.30;;
19199;SDS011;9732;52.498;5.408;2022-09-09T13:49:52;10.15;;;3.30;;
19199;SDS011;9732;52.498;5.408;2022-09-09T13:52:19;8.45;;;3.55;;
19199;SDS011;9732;52.498;5.408;2022-09-09T13:54:47;9.40;;;3.30;;
19199;SDS011;9732;52.498;5.408;2022-09-09T13:57:16;7.25;;;3.30;;
19199;SDS011;9732;52.498;5.408;2022-09-09T13:59:45;5.85;;;3.33;;
19199;SDS011;9732;52.498;5.408;2022-09-09T14:02:12;5.25;;;3.08;;
19199;SDS011;9732;52.498;5.408;2022-09-09T14:04:38;9.82;;;4.03;;
19199;SDS011;9732;52.498;5.408;2022-09-09T14:07:08;6.72;;;3.33;;
19199;SDS011;9732;52.498;5.408;2022-09-09T14:09:37;8.25;;;3.65;;
19199;SDS011;9732;52.498;5.408;2022-09-09T14:12:05;5.82;;;3.22;;
19199;SDS011;9732;52.498;5.408;2022-09-09T14:14:31;5.40;;;3.20;;
19199;SDS011;9732;52.498;5.408;2022-09-09T14:16:59;8.05;;;3.85;;
19199;SDS011;9732;52.498;5.408;2022-09-09T14:19:26;7.70;;;3.92;;
19199;SDS011;9732;52.498;5.408;2022-09-09T14:21:53;4.95;;;3.20;;
19199;SDS011;9732;52.498;5.408;2022-09-09T14:24:19;6.75;;;3.47;;
19199;SDS011;9732;52.498;5.408;2022-09-09T14:26:46;9.05;;;3.70;;
19199;SDS011;9732;52.498;5.408;2022-09-09T14:29:13;5.93;;;3.25;;
19199;SDS011;9732;52.498;5.408;2022-09-09T14:31:40;7.63;;;3.17;;
19199;SDS011;9732;52.498;5.408;2022-09-09T14:34:08;4.45;;;3.33;;
19199;SDS011;9732;52.498;5.408;2022-09-09T14:36:35;5.47;;;3.55;;
19199;SDS011;9732;52.498;5.408;2022-09-09T14:39:02;5.65;;;3.72;;
19199;SDS011;9732;52.498;5.408;2022-09-09T14:41:30;8.23;;;3.67;;
19199;SDS011;9732;52.498;5.408;2022-09-09T14:43:56;7.53;;;3.80;;
19199;SDS011;9732;52.498;5.408;2022-09-09T14:46:24;16.38;;;3.97;;
19199;SDS011;9732;52.498;5.408;2022-09-09T14:48:51;3.85;;;3.10;;
19199;SDS011;9732;52.498;5.408;2022-09-09T14:51:20;9.30;;;3.42;;
19199;SDS011;9732;52.498;5.408;2022-09-09T14:53:50;10.93;;;3.90;;
19199;SDS011;9732;52.498;5.408;2022-09-09T14:56:19;5.97;;;3.55;;
19199;SDS011;9732;52.498;5.408;2022-09-09T14:58:48;5.90;;;3.22;;
19199;SDS011;9732;52.498;5.408;2022-09-09T15:01:16;8.60;;;3.33;;
19199;SDS011;9732;52.498;5.408;2022-09-09T15:03:48;11.52;;;3.67;;
19199;SDS011;9732;52.498;5.408;2022-09-09T15:06:16;8.68;;;3.60;;
19199;SDS011;9732;52.498;5.408;2022-09-09T15:08:46;5.28;;;3.22;;
19199;SDS011;9732;52.498;5.408;2022-09-09T15:11:13;7.93;;;3.22;;
19199;SDS011;9732;52.498;5.408;2022-09-09T15:13:41;9.52;;;3.20;;
19199;SDS011;9732;52.498;5.408;2022-09-09T15:16:09;7.47;;;2.88;;
19199;SDS011;9732;52.498;5.408;2022-09-09T15:18:37;4.78;;;3.15;;
19199;SDS011;9732;52.498;5.408;2022-09-09T15:21:08;9.57;;;3.80;;
19199;SDS011;9732;52.498;5.408;2022-09-09T15:23:35;7.95;;;3.50;;
19199;SDS011;9732;52.498;5.408;2022-09-09T15:26:03;6.40;;;3.00;;